Terminal Aerodrome Forecast
Issued by NWS North Platte, NE

Home | Current Version | Previous Version | Graphics & Text | Print | Product List | Glossary On
Versions: 1 2 3 4 5 6 7 8 9 10 11 12 13 14 15
000
FTUS43 KLBF 140520
TAFVTN
TAF
KVTN 140520Z 1406/1506 31009KT P6SM SCT060 OVC120
     FM141200 30008KT P6SM -SN OVC025
      TEMPO 1413/1416 3SM -SN OVC018
     FM141600 33017G28KT P6SM -SN OVC020
     FM142300 30010KT P6SM BKN040=

USA.gov is the U.S. government's official web portal to all federal, state and local government web resources and services.